BWI weather

Baltimore/Washington International Thurgood Marshall Airport
Baltimore, Maryland, United States

Public forecast

Using degrees Fahrenheit for public forecast. Weather courtesy of forecast.io.

METAR (pilot weather report)

Retrieved 2017/03/24 20:54 UTC (1 hour ago):

KBWI 242054Z 23011KT 10SM FEW150 OVC250 15/01 A3019

TAF (pilot weather forecast)

Retrieved 2017/03/24 18:36 UTC (3 hours ago):

TAF KBWI 241732Z 2418/2524 21011G17KT P6SM SCT080 FM250000 21007KT P6SM SCT140 FM252200 17004KT P6SM OVC045